Time;durP1;ratioP1;P1;durP2;ratioP2;P2;SDS_P1;SDS_P2;PMS_P1;PMS_P2;Temp;Humidity;BMP_temperature;BMP_pressure;BME280_temperature;BME280_humidity;BME280_pressure;Samples;Min_cycle;Max_cycle;Signal;HPM_P1;HPM_P2
2024/02/04 00:00:29;;;;;;;21.35;5.72;;;7.80;99.90;;;;;;5062693;28;20222;-42
2024/02/04 00:02:55;;;;;;;22.67;6.15;;;7.80;99.90;;;;;;5062329;28;20218;-43
2024/02/04 00:05:21;;;;;;;18.45;4.88;;;7.80;99.90;;;;;;5057272;28;20189;-44
2024/02/04 00:07:47;;;;;;;19.35;5.53;;;7.80;99.90;;;;;;5062780;28;20193;-41
2024/02/04 00:10:15;;;;;;;20.13;5.25;;;7.80;99.90;;;;;;5062628;28;20190;-39
2024/02/04 00:12:41;;;;;;;22.02;5.03;;;7.80;99.90;;;;;;5062389;28;20190;-45
2024/02/04 00:15:07;;;;;;;18.10;5.30;;;7.70;99.90;;;;;;5061827;28;20253;-41
2024/02/04 00:17:34;;;;;;;21.48;5.55;;;7.70;99.90;;;;;;5062932;28;20220;-51
2024/02/04 00:20:05;;;;;;;27.25;5.05;;;7.80;99.90;;;;;;5062041;28;20230;-40
2024/02/04 00:22:34;;;;;;;23.02;4.65;;;7.70;99.90;;;;;;5062186;28;20187;-43
2024/02/04 00:25:11;;;;;;;16.35;3.90;;;7.70;99.90;;;;;;5061426;28;20725;-39
2024/02/04 00:27:38;;;;;;;16.88;4.00;;;7.70;99.90;;;;;;5044166;28;20205;-42
2024/02/04 00:30:04;;;;;;;16.25;4.25;;;7.60;99.90;;;;;;5060576;28;20194;-41
2024/02/04 00:32:30;;;;;;;22.10;4.20;;;7.60;99.90;;;;;;5061925;28;20236;-47
2024/02/04 00:34:56;;;;;;;14.35;3.53;;;7.60;99.90;;;;;;5060252;28;20199;-46
2024/02/04 00:37:21;;;;;;;22.08;4.43;;;7.60;99.90;;;;;;5077063;28;20256;-42
2024/02/04 00:39:47;;;;;;;16.40;3.53;;;7.50;99.90;;;;;;5060749;28;20206;-45
2024/02/04 00:42:13;;;;;;;19.25;4.43;;;7.50;99.90;;;;;;5077372;28;20178;-41
2024/02/04 00:44:38;;;;;;;18.38;4.25;;;7.50;99.90;;;;;;5060948;28;20187;-47
2024/02/04 00:47:04;;;;;;;20.65;4.28;;;7.40;99.90;;;;;;5077233;28;20192;-50
2024/02/04 00:49:30;;;;;;;22.52;4.28;;;7.40;99.90;;;;;;5058543;28;20924;-43
2024/02/04 00:51:56;;;;;;;21.98;3.95;;;7.40;99.90;;;;;;5061987;28;20247;-40
2024/02/04 00:54:21;;;;;;;15.40;4.07;;;7.40;99.90;;;;;;5059378;28;20202;-43
2024/02/04 00:56:47;;;;;;;24.23;4.63;;;7.30;99.90;;;;;;5060117;28;20211;-44
2024/02/04 00:59:14;;;;;;;17.85;3.95;;;7.40;99.90;;;;;;5061318;28;20186;-42
2024/02/04 01:01:39;;;;;;;23.10;4.30;;;7.40;99.90;;;;;;5060771;28;20217;-44
2024/02/04 01:04:05;;;;;;;17.73;4.32;;;7.30;99.90;;;;;;5061308;28;20214;-39
2024/02/04 01:06:31;;;;;;;18.73;4.57;;;7.30;99.90;;;;;;5061722;28;20190;-39
2024/02/04 01:08:57;;;;;;;14.70;4.70;;;7.30;99.90;;;;;;5061157;28;20203;-45
2024/02/04 01:11:22;;;;;;;20.10;5.53;;;7.30;99.90;;;;;;5059731;28;20195;-45
2024/02/04 01:13:48;;;;;;;16.38;5.70;;;7.20;99.90;;;;;;5060980;28;20191;-44
2024/02/04 01:16:14;;;;;;;22.63;4.72;;;7.20;99.90;;;;;;5059494;28;20229;-40
2024/02/04 01:18:40;;;;;;;26.45;4.80;;;7.20;99.90;;;;;;5061072;28;20251;-47
2024/02/04 01:21:06;;;;;;;21.70;4.95;;;7.20;99.90;;;;;;5061409;28;20698;-48
2024/02/04 01:23:31;;;;;;;21.63;5.07;;;7.10;99.90;;;;;;5061439;28;20186;-42
2024/02/04 01:25:57;;;;;;;23.83;4.72;;;7.10;99.90;;;;;;5061486;28;20187;-45
2024/02/04 01:28:23;;;;;;;20.98;3.83;;;7.00;99.90;;;;;;5060891;28;20214;-45
2024/02/04 01:30:48;;;;;;;20.02;3.75;;;7.00;99.90;;;;;;5061290;28;20197;-46
2024/02/04 01:33:14;;;;;;;18.73;3.85;;;7.00;99.90;;;;;;5060782;28;20662;-39
2024/02/04 01:35:40;;;;;;;19.70;3.70;;;7.00;99.90;;;;;;5060960;28;20243;-50
2024/02/04 01:38:06;;;;;;;23.83;4.10;;;7.00;99.90;;;;;;5060303;28;20214;-39
2024/02/04 01:40:31;;;;;;;20.20;3.60;;;7.00;99.90;;;;;;5060938;28;20930;-39
2024/02/04 01:42:57;;;;;;;18.02;3.72;;;6.90;99.90;;;;;;5059622;28;20194;-44
2024/02/04 01:45:24;;;;;;;19.83;3.53;;;7.00;99.90;;;;;;5076127;28;20218;-43
2024/02/04 01:47:50;;;;;;;22.20;3.58;;;6.90;99.90;;;;;;5059120;28;20313;-44
2024/02/04 01:50:16;;;;;;;21.05;3.72;;;6.90;99.90;;;;;;5060917;28;20285;-41
2024/02/04 01:52:44;;;;;;;19.33;3.22;;;6.90;99.90;;;;;;5060419;28;20237;-42
2024/02/04 01:55:10;;;;;;;19.95;3.80;;;6.90;99.90;;;;;;5047053;28;20202;-46
2024/02/04 01:57:36;;;;;;;19.05;3.75;;;6.90;99.90;;;;;;5061029;28;20222;-42
2024/02/04 02:00:04;;;;;;;25.00;3.75;;;6.90;99.90;;;;;;5058852;28;20193;-52
2024/02/04 02:02:33;;;;;;;17.77;2.83;;;6.90;99.90;;;;;;5060054;28;20190;-42
2024/02/04 02:04:59;;;;;;;15.48;3.13;;;6.90;99.90;;;;;;5054779;28;20174;-38
2024/02/04 02:07:27;;;;;;;28.38;3.80;;;6.90;99.90;;;;;;5060527;28;20213;-41
2024/02/04 02:09:53;;;;;;;24.83;4.28;;;6.90;99.90;;;;;;5075613;28;20214;-44
2024/02/04 02:12:44;;;;;;;21.90;3.42;;;6.90;99.90;;;;;;5060277;28;20198;-43
2024/02/04 02:15:21;;;;;;;16.40;3.17;;;6.90;99.90;;;;;;5075259;28;20585;-45
2024/02/04 02:18:13;;;;;;;21.55;3.00;;;6.80;99.90;;;;;;5059784;28;20297;-44
2024/02/04 02:20:58;;;;;;;19.80;3.10;;;6.90;99.90;;;;;;5059371;28;20271;-42
2024/02/04 02:23:31;;;;;;;21.25;2.85;;;6.80;99.90;;;;;;5041813;28;20191;-43
2024/02/04 02:25:59;;;;;;;17.58;3.22;;;6.80;99.90;;;;;;5060379;28;20189;-41
2024/02/04 02:28:24;;;;;;;22.63;3.28;;;6.80;99.90;;;;;;5060858;28;20202;-46
2024/02/04 02:30:50;;;;;;;19.38;2.97;;;6.80;99.90;;;;;;5064089;28;20236;-42
2024/02/04 02:33:16;;;;;;;19.52;3.10;;;6.80;99.90;;;;;;5064248;28;20195;-44
2024/02/04 02:35:44;;;;;;;23.67;3.40;;;6.80;99.90;;;;;;5063685;28;20209;-49
2024/02/04 02:38:26;;;;;;;21.80;2.95;;;6.80;99.90;;;;;;5063721;28;20253;-43
2024/02/04 02:40:58;;;;;;;21.10;2.88;;;6.80;99.90;;;;;;5062931;28;20635;-44
2024/02/04 02:43:24;;;;;;;16.27;2.92;;;6.70;99.90;;;;;;5063490;28;20194;-44
2024/02/04 02:45:50;;;;;;;22.50;3.17;;;6.80;99.90;;;;;;5064415;28;20642;-43
2024/02/04 02:48:17;;;;;;;13.13;3.03;;;6.80;99.90;;;;;;5063747;28;20226;-46
2024/02/04 02:50:42;;;;;;;18.58;3.22;;;6.80;99.90;;;;;;5063474;28;20244;-40
2024/02/04 02:53:08;;;;;;;13.82;3.15;;;6.80;99.90;;;;;;5061839;28;20198;-43
2024/02/04 02:55:34;;;;;;;14.73;2.45;;;6.80;99.90;;;;;;5063538;28;20302;-46
2024/02/04 02:57:59;;;;;;;18.63;3.28;;;6.80;99.90;;;;;;5078896;28;20202;-43
2024/02/04 03:00:25;;;;;;;28.98;3.70;;;6.80;99.90;;;;;;5078847;28;20194;-42
2024/02/04 03:02:51;;;;;;;16.70;3.45;;;6.80;99.90;;;;;;5060278;28;20681;-43
2024/02/04 03:05:18;;;;;;;20.80;3.47;;;6.80;99.90;;;;;;5078995;28;20263;-41
2024/02/04 03:07:44;;;;;;;20.95;3.08;;;6.80;99.90;;;;;;5079112;28;20298;-41
2024/02/04 03:10:10;;;;;;;17.90;3.17;;;6.80;99.90;;;;;;5063466;28;20298;-40
2024/02/04 03:12:36;;;;;;;20.73;3.17;;;6.80;99.90;;;;;;5061182;28;20615;-42
2024/02/04 03:15:02;;;;;;;24.60;3.25;;;6.70;99.90;;;;;;5062193;28;20198;-44
2024/02/04 03:17:28;;;;;;;13.38;3.45;;;6.70;99.90;;;;;;5061694;28;20686;-42
2024/02/04 03:19:56;;;;;;;21.90;4.00;;;6.70;99.90;;;;;;5063072;28;20214;-40
2024/02/04 03:22:23;;;;;;;24.27;3.80;;;6.80;99.90;;;;;;5062379;28;20183;-43
2024/02/04 03:24:49;;;;;;;19.63;3.67;;;6.70;99.90;;;;;;5078397;28;20306;-43
2024/02/04 03:27:17;;;;;;;24.85;3.78;;;6.70;99.90;;;;;;5062849;28;20186;-42
2024/02/04 03:29:44;;;;;;;13.20;3.45;;;6.70;99.90;;;;;;5061317;28;20255;-46
2024/02/04 03:32:13;;;;;;;16.70;3.25;;;6.70;99.90;;;;;;5063352;28;20198;-42
2024/02/04 03:34:41;;;;;;;22.10;3.70;;;6.80;99.90;;;;;;5061900;28;20296;-44
2024/02/04 03:37:07;;;;;;;19.70;3.53;;;6.80;99.90;;;;;;5061345;28;20206;-44
2024/02/04 03:39:33;;;;;;;19.38;3.60;;;6.80;99.90;;;;;;5077558;28;20189;-48
2024/02/04 03:41:59;;;;;;;20.90;4.00;;;6.80;99.90;;;;;;5062055;28;20199;-41
2024/02/04 03:44:25;;;;;;;16.63;3.63;;;6.90;99.90;;;;;;5093784;28;20183;-41
2024/02/04 03:46:51;;;;;;;21.23;3.58;;;6.90;99.90;;;;;;5078396;28;20194;-42
2024/02/04 03:49:17;;;;;;;21.17;3.45;;;6.90;99.90;;;;;;5074304;28;20231;-44
2024/02/04 03:51:43;;;;;;;18.27;3.75;;;6.90;99.90;;;;;;5078598;28;20195;-43
2024/02/04 03:54:09;;;;;;;20.17;3.25;;;7.00;99.90;;;;;;5061205;28;20596;-44
2024/02/04 03:56:35;;;;;;;18.83;3.83;;;7.00;99.90;;;;;;5060348;28;20175;-41
2024/02/04 03:59:01;;;;;;;12.60;3.05;;;7.00;99.90;;;;;;5060882;28;20685;-44
2024/02/04 04:01:27;;;;;;;19.75;4.07;;;7.00;99.90;;;;;;5062298;28;20319;-40
2024/02/04 04:03:53;;;;;;;19.83;3.95;;;7.10;99.90;;;;;;5060796;28;20194;-44
2024/02/04 04:06:18;;;;;;;20.00;3.47;;;7.10;99.90;;;;;;5062917;28;20300;-40
2024/02/04 04:08:44;;;;;;;22.08;3.65;;;7.10;99.90;;;;;;5060833;28;20190;-46
2024/02/04 04:11:10;;;;;;;19.38;3.25;;;7.10;99.90;;;;;;5062402;28;20194;-39
2024/02/04 04:13:37;;;;;;;23.45;3.90;;;7.10;99.90;;;;;;5062229;28;20179;-43
2024/02/04 04:16:04;;;;;;;19.23;3.78;;;7.20;99.90;;;;;;5062146;28;20673;-43
2024/02/04 04:18:30;;;;;;;21.80;3.40;;;7.20;99.90;;;;;;5062342;28;20242;-44
2024/02/04 04:20:56;;;;;;;24.70;3.72;;;7.20;99.90;;;;;;5061546;28;20264;-42
2024/02/04 04:23:22;;;;;;;18.17;3.83;;;7.20;99.90;;;;;;5062151;28;20232;-42
2024/02/04 04:25:48;;;;;;;23.45;3.78;;;7.20;99.90;;;;;;5062269;28;20638;-42
2024/02/04 04:28:13;;;;;;;19.80;3.85;;;7.30;99.90;;;;;;5061774;28;20193;-44
2024/02/04 04:30:39;;;;;;;18.33;3.88;;;7.20;99.90;;;;;;5062183;28;20240;-44
2024/02/04 04:33:06;;;;;;;21.55;4.32;;;7.30;99.90;;;;;;5062216;28;20280;-44
2024/02/04 04:35:32;;;;;;;20.02;4.03;;;7.30;99.90;;;;;;5062247;28;20601;-43
2024/02/04 04:37:57;;;;;;;24.38;4.47;;;7.30;99.90;;;;;;5061370;28;20210;-47
2024/02/04 04:40:23;;;;;;;31.25;4.47;;;7.30;99.90;;;;;;5061370;28;20232;-41
2024/02/04 04:42:49;;;;;;;19.02;3.85;;;7.30;99.90;;;;;;5061662;28;21320;-38
2024/02/04 04:45:15;;;;;;;24.20;4.03;;;7.30;99.90;;;;;;5060458;28;20273;-40
2024/02/04 04:47:41;;;;;;;23.17;3.65;;;7.30;99.90;;;;;;5061065;28;20220;-43
2024/02/04 04:50:07;;;;;;;23.52;3.85;;;7.30;99.90;;;;;;5060315;28;20218;-42
2024/02/04 04:52:33;;;;;;;17.65;4.00;;;7.30;99.90;;;;;;5061340;28;20194;-44
2024/02/04 04:54:58;;;;;;;20.35;3.83;;;7.30;99.90;;;;;;5061737;28;20183;-45
2024/02/04 04:57:24;;;;;;;21.73;3.85;;;7.40;99.90;;;;;;5061676;28;20242;-42
2024/02/04 04:59:50;;;;;;;18.25;3.42;;;7.40;99.90;;;;;;5061292;28;20190;-40
2024/02/04 05:02:16;;;;;;;18.42;3.60;;;7.40;99.90;;;;;;5060627;28;20233;-39
2024/02/04 05:04:45;;;;;;;22.83;4.00;;;7.40;99.90;;;;;;5059429;28;20187;-48
2024/02/04 05:07:11;;;;;;;21.20;3.80;;;7.40;99.90;;;;;;5061250;28;20195;-41
2024/02/04 05:09:37;;;;;;;25.45;3.78;;;7.40;99.90;;;;;;5060237;28;20198;-43
2024/02/04 05:12:03;;;;;;;18.38;3.53;;;7.40;99.90;;;;;;5061096;28;20221;-43
2024/02/04 05:14:29;;;;;;;22.08;3.90;;;7.50;99.90;;;;;;5060094;28;20190;-45
2024/02/04 05:16:54;;;;;;;29.10;4.10;;;7.40;99.90;;;;;;5060805;28;20225;-40
2024/02/04 05:19:20;;;;;;;20.08;3.40;;;7.40;99.90;;;;;;5061018;28;20234;-40
2024/02/04 05:21:46;;;;;;;20.58;4.15;;;7.50;99.90;;;;;;5061630;28;20190;-40
2024/02/04 05:24:12;;;;;;;27.67;3.88;;;7.50;99.90;;;;;;5061213;28;20191;-42
2024/02/04 05:26:38;;;;;;;20.60;3.85;;;7.50;99.90;;;;;;5092274;28;20182;-45
2024/02/04 05:29:04;;;;;;;17.65;3.00;;;7.50;99.90;;;;;;5059996;28;20195;-46
2024/02/04 05:31:29;;;;;;;20.10;3.60;;;7.50;99.90;;;;;;5061439;28;20187;-48
2024/02/04 05:33:56;;;;;;;19.27;3.88;;;7.50;99.90;;;;;;5060772;28;20213;-44
2024/02/04 05:36:21;;;;;;;18.10;3.75;;;7.50;99.90;;;;;;5060721;28;20196;-47
2024/02/04 05:38:47;;;;;;;20.85;4.10;;;7.50;99.90;;;;;;5060668;28;20603;-47
2024/02/04 05:41:13;;;;;;;19.25;4.13;;;7.60;99.90;;;;;;5061323;28;20195;-44
2024/02/04 05:43:39;;;;;;;23.98;4.10;;;7.60;99.90;;;;;;5060088;28;20191;-43
2024/02/04 05:46:05;;;;;;;25.65;3.97;;;7.60;99.90;;;;;;5060236;28;20236;-47
2024/02/04 05:48:30;;;;;;;22.10;3.63;;;7.60;99.90;;;;;;5060728;28;20221;-44
2024/02/04 05:50:56;;;;;;;22.75;3.97;;;7.60;99.90;;;;;;5060235;28;20187;-44
2024/02/04 05:53:22;;;;;;;24.13;2.97;;;7.60;99.90;;;;;;5060177;28;20191;-44
2024/02/04 05:55:48;;;;;;;18.35;3.30;;;7.60;99.90;;;;;;5059241;28;20191;-44
2024/02/04 05:58:14;;;;;;;22.80;4.10;;;7.60;99.90;;;;;;5075591;28;20210;-46
2024/02/04 06:00:40;;;;;;;14.45;2.95;;;7.60;99.90;;;;;;5074074;28;20197;-40
2024/02/04 06:03:06;;;;;;;24.25;3.25;;;7.60;99.90;;;;;;5060950;28;20193;-46
2024/02/04 06:05:32;;;;;;;16.77;3.22;;;7.70;99.90;;;;;;5059411;28;20240;-42
2024/02/04 06:07:58;;;;;;;23.50;3.20;;;7.60;99.90;;;;;;5059622;28;20720;-48
2024/02/04 06:10:23;;;;;;;17.95;3.13;;;7.70;99.90;;;;;;5060439;28;20213;-45
2024/02/04 06:12:49;;;;;;;20.05;3.10;;;7.70;99.90;;;;;;5060472;28;20197;-40
2024/02/04 06:15:15;;;;;;;22.40;3.55;;;7.70;99.90;;;;;;5060118;28;20313;-41
2024/02/04 06:17:42;;;;;;;20.95;3.22;;;7.70;99.90;;;;;;5059665;28;21931;-42
2024/02/04 06:20:08;;;;;;;25.02;3.42;;;7.70;99.90;;;;;;5058715;28;20290;-43
2024/02/04 06:22:36;;;;;;;26.40;3.42;;;7.70;99.90;;;;;;5059942;28;20699;-43
2024/02/04 06:25:03;;;;;;;25.85;3.58;;;7.70;99.90;;;;;;5060696;28;20543;-43
2024/02/04 06:27:30;;;;;;;19.50;3.38;;;7.70;99.90;;;;;;5059942;28;20201;-43
2024/02/04 06:29:56;;;;;;;22.75;3.75;;;7.70;99.90;;;;;;5060003;28;20221;-47
2024/02/04 06:32:21;;;;;;;15.35;3.08;;;7.80;99.90;;;;;;5058402;28;20617;-44
2024/02/04 06:34:47;;;;;;;20.35;3.47;;;7.80;99.90;;;;;;5060662;28;20218;-42
2024/02/04 06:37:13;;;;;;;16.00;3.75;;;7.80;99.90;;;;;;5059905;28;20308;-47
2024/02/04 06:39:39;;;;;;;18.50;3.25;;;7.80;99.90;;;;;;5059841;28;20190;-45
2024/02/04 06:42:05;;;;;;;15.30;2.92;;;7.90;99.90;;;;;;5060113;28;20202;-44
2024/02/04 06:44:30;;;;;;;18.88;3.00;;;7.90;99.90;;;;;;5059175;28;20195;-43
2024/02/04 06:46:56;;;;;;;24.23;4.45;;;7.90;99.90;;;;;;5059946;28;20610;-42
2024/02/04 06:49:22;;;;;;;21.88;3.35;;;7.90;99.90;;;;;;5059240;28;20269;-42
2024/02/04 06:51:47;;;;;;;16.45;3.65;;;7.90;99.90;;;;;;5059202;28;20216;-44
2024/02/04 06:54:14;;;;;;;22.85;3.45;;;8.00;99.90;;;;;;5060396;28;20186;-42
2024/02/04 06:56:40;;;;;;;12.35;2.85;;;7.90;99.90;;;;;;5060387;28;20301;-40
2024/02/04 06:59:06;;;;;;;22.13;3.33;;;8.10;99.90;;;;;;5059706;28;20201;-43
2024/02/04 07:01:32;;;;;;;23.25;3.55;;;8.10;99.90;;;;;;5059192;28;20191;-42
2024/02/04 07:03:58;;;;;;;22.67;3.13;;;8.10;99.90;;;;;;5059741;28;20190;-43
2024/02/04 07:06:24;;;;;;;17.38;3.90;;;8.20;99.90;;;;;;5059437;28;20182;-47
2024/02/04 07:08:50;;;;;;;16.67;3.33;;;8.20;99.90;;;;;;5060080;28;20190;-45
2024/02/04 07:11:16;;;;;;;19.42;3.65;;;8.20;99.90;;;;;;5056243;28;20569;-40
2024/02/04 07:13:42;;;;;;;18.30;3.72;;;8.20;99.90;;;;;;5059657;28;20676;-50
2024/02/04 07:16:08;;;;;;;24.77;3.58;;;8.20;99.90;;;;;;5061993;28;20210;-42
2024/02/04 07:18:34;;;;;;;21.73;3.40;;;8.20;99.90;;;;;;5060563;28;20214;-45
2024/02/04 07:20:59;;;;;;;20.13;4.00;;;8.30;99.90;;;;;;5061682;28;20214;-46
2024/02/04 07:23:25;;;;;;;21.35;4.45;;;8.30;99.90;;;;;;5061877;28;20288;-42
2024/02/04 07:25:51;;;;;;;21.77;3.53;;;8.30;99.90;;;;;;5060290;28;20191;-41
2024/02/04 07:28:17;;;;;;;22.45;3.53;;;8.30;99.90;;;;;;5043503;28;20190;-44
2024/02/04 07:30:42;;;;;;;24.88;3.50;;;8.30;99.90;;;;;;5060011;28;20210;-50
2024/02/04 07:33:08;;;;;;;21.55;3.45;;;8.40;99.90;;;;;;5059772;28;20233;-45
2024/02/04 07:35:34;;;;;;;22.83;3.65;;;8.40;99.90;;;;;;5062098;28;20194;-48
2024/02/04 07:38:00;;;;;;;21.50;3.40;;;8.40;99.90;;;;;;5061265;28;20203;-44
2024/02/04 07:40:27;;;;;;;18.25;3.42;;;8.40;99.90;;;;;;5059060;28;20191;-45
2024/02/04 07:42:54;;;;;;;28.67;3.67;;;8.40;99.90;;;;;;5060802;28;20864;-52
2024/02/04 07:45:20;;;;;;;24.75;4.28;;;8.40;99.90;;;;;;5063049;28;20261;-45
2024/02/04 07:47:46;;;;;;;17.85;3.63;;;8.40;99.90;;;;;;5061337;28;20274;-43
2024/02/04 07:50:12;;;;;;;24.00;3.95;;;8.50;99.90;;;;;;5062756;28;20727;-50
2024/02/04 07:52:38;;;;;;;22.30;3.53;;;8.50;99.90;;;;;;5061912;28;20191;-47
2024/02/04 07:55:04;;;;;;;19.38;3.28;;;8.50;99.90;;;;;;5061466;28;20198;-42
2024/02/04 07:57:30;;;;;;;15.95;3.72;;;8.50;99.90;;;;;;5043866;28;20210;-49
2024/02/04 07:59:55;;;;;;;21.35;3.55;;;8.50;99.90;;;;;;5060534;28;20178;-41
2024/02/04 08:02:21;;;;;;;22.30;3.50;;;8.60;99.90;;;;;;5062858;28;20187;-42
2024/02/04 08:04:47;;;;;;;16.33;3.50;;;8.60;99.90;;;;;;5062326;28;20202;-44
2024/02/04 08:07:13;;;;;;;17.55;3.50;;;8.60;99.90;;;;;;5062258;28;20323;-48
2024/02/04 08:09:38;;;;;;;19.35;3.38;;;8.60;99.90;;;;;;5062479;28;20193;-43
2024/02/04 08:12:04;;;;;;;14.77;3.30;;;8.60;99.90;;;;;;5062396;28;20202;-44
2024/02/04 08:14:30;;;;;;;15.38;3.15;;;8.60;99.90;;;;;;5062400;28;20215;-44
2024/02/04 08:16:56;;;;;;;26.60;3.42;;;8.60;99.90;;;;;;5061629;28;20283;-47
2024/02/04 08:19:21;;;;;;;14.07;2.70;;;8.60;99.90;;;;;;5059749;28;20213;-44
2024/02/04 08:21:47;;;;;;;19.63;4.00;;;8.60;99.90;;;;;;5061958;28;20235;-51
2024/02/04 08:24:14;;;;;;;21.98;3.83;;;8.60;99.90;;;;;;5044831;28;20214;-45
2024/02/04 08:26:39;;;;;;;16.45;3.67;;;8.70;99.90;;;;;;5061213;28;20198;-43
2024/02/04 08:29:05;;;;;;;23.52;4.65;;;8.70;99.90;;;;;;5044347;28;20202;-41
2024/02/04 08:31:32;;;;;;;23.13;4.38;;;8.70;99.90;;;;;;5061721;28;20190;-50
2024/02/04 08:33:58;;;;;;;17.50;3.53;;;8.70;99.90;;;;;;5060667;28;20202;-50
2024/02/04 08:36:24;;;;;;;24.73;3.30;;;8.70;99.90;;;;;;5062435;28;20557;-45
2024/02/04 08:38:49;;;;;;;24.17;4.00;;;8.70;99.90;;;;;;5060581;28;20295;-44
2024/02/04 08:41:15;;;;;;;14.65;3.65;;;8.80;99.90;;;;;;5062189;28;20263;-43
2024/02/04 08:43:41;;;;;;;20.42;4.50;;;8.80;99.90;;;;;;5062200;28;20194;-43
2024/02/04 08:46:07;;;;;;;17.75;3.88;;;8.80;99.90;;;;;;5062172;28;20511;-44
2024/02/04 08:48:32;;;;;;;18.38;4.10;;;8.90;99.90;;;;;;5062196;28;20182;-48
2024/02/04 08:50:58;;;;;;;21.13;4.43;;;8.90;99.90;;;;;;5061621;28;20186;-48
2024/02/04 08:53:24;;;;;;;21.30;3.97;;;8.90;99.90;;;;;;5060175;28;20198;-42
2024/02/04 08:55:50;;;;;;;19.45;3.97;;;8.90;99.90;;;;;;5060431;28;20198;-49
2024/02/04 08:58:16;;;;;;;13.10;3.53;;;9.00;99.90;;;;;;5062072;28;20217;-38
2024/02/04 09:00:41;;;;;;;16.60;4.28;;;9.00;99.90;;;;;;5061600;28;20186;-41
2024/02/04 09:03:07;;;;;;;21.15;4.82;;;9.00;99.90;;;;;;5061757;28;20182;-40
2024/02/04 09:05:33;;;;;;;19.10;4.32;;;9.10;99.90;;;;;;5061111;28;20187;-42
2024/02/04 09:07:58;;;;;;;18.17;4.13;;;9.10;99.90;;;;;;5061631;28;20198;-43
2024/02/04 09:10:24;;;;;;;19.60;4.53;;;9.10;99.90;;;;;;5060039;28;20198;-43
2024/02/04 09:12:50;;;;;;;21.67;4.07;;;9.20;99.90;;;;;;5061527;28;20595;-44
2024/02/04 09:15:16;;;;;;;25.73;4.88;;;9.20;99.90;;;;;;5061127;28;20217;-41
2024/02/04 09:17:41;;;;;;;13.20;3.90;;;9.20;99.90;;;;;;5060577;28;20291;-39
2024/02/04 09:20:08;;;;;;;16.50;4.10;;;9.20;99.90;;;;;;5060730;28;20233;-39
2024/02/04 09:22:34;;;;;;;14.25;3.92;;;9.30;99.90;;;;;;5061617;28;20250;-38
2024/02/04 09:24:59;;;;;;;15.80;4.45;;;9.30;99.90;;;;;;5061073;28;20210;-43
2024/02/04 09:27:25;;;;;;;23.25;4.18;;;9.30;99.90;;;;;;5060082;28;20287;-39
2024/02/04 09:29:51;;;;;;;15.85;4.10;;;9.30;99.90;;;;;;5059622;28;20194;-44
2024/02/04 09:32:17;;;;;;;17.25;3.97;;;9.30;99.90;;;;;;5060985;28;20198;-43
2024/02/04 09:34:43;;;;;;;18.45;3.80;;;9.30;99.90;;;;;;5060899;28;20669;-42
2024/02/04 09:37:09;;;;;;;21.88;3.75;;;9.30;99.90;;;;;;5091447;28;20303;-41
2024/02/04 09:39:35;;;;;;;17.10;3.85;;;9.30;99.90;;;;;;5060477;28;20195;-42
2024/02/04 09:42:01;;;;;;;21.20;4.13;;;9.30;99.90;;;;;;5059207;28;20291;-42
2024/02/04 09:44:27;;;;;;;17.02;3.92;;;9.30;99.90;;;;;;5060548;28;20274;-43
2024/02/04 09:46:54;;;;;;;17.20;4.07;;;9.40;99.90;;;;;;5076295;28;20572;-42
2024/02/04 09:49:20;;;;;;;15.20;3.97;;;9.40;99.90;;;;;;5060967;28;20190;-43
2024/02/04 09:51:47;;;;;;;27.27;4.65;;;9.50;99.90;;;;;;5060233;28;21040;-43
2024/02/04 09:54:16;;;;;;;13.20;4.05;;;9.50;99.90;;;;;;5059932;28;20179;-43
2024/02/04 09:56:42;;;;;;;12.40;3.40;;;9.60;99.90;;;;;;5059589;28;20643;-39
2024/02/04 09:59:08;;;;;;;17.38;3.95;;;9.60;99.90;;;;;;5060432;28;20214;-40
2024/02/04 10:01:35;;;;;;;16.38;3.92;;;9.60;99.90;;;;;;5090503;28;20562;-43
2024/02/04 10:04:01;;;;;;;15.15;3.95;;;9.60;99.90;;;;;;5060900;28;20191;-40
2024/02/04 10:06:27;;;;;;;14.88;3.33;;;9.60;99.90;;;;;;5061341;28;20220;-42
2024/02/04 10:08:53;;;;;;;17.10;4.20;;;9.70;99.90;;;;;;5060242;28;20198;-40
2024/02/04 10:11:19;;;;;;;18.90;4.00;;;9.70;99.90;;;;;;5060136;28;20190;-39
2024/02/04 10:13:45;;;;;;;18.20;3.58;;;9.70;99.90;;;;;;5060548;28;20206;-43
2024/02/04 10:16:12;;;;;;;11.98;3.22;;;9.70;99.90;;;;;;5060359;28;20194;-39
2024/02/04 10:18:42;;;;;;;11.52;3.53;;;9.70;99.90;;;;;;5060767;28;20241;-40
2024/02/04 10:21:16;;;;;;;14.52;3.35;;;9.70;99.90;;;;;;5060588;28;20230;-40
2024/02/04 10:23:42;;;;;;;11.98;3.35;;;9.80;99.90;;;;;;5059936;28;20186;-41
2024/02/04 10:26:08;;;;;;;14.85;3.30;;;9.80;99.90;;;;;;5060509;28;20319;-43
2024/02/04 10:28:34;;;;;;;16.27;3.58;;;9.80;99.90;;;;;;5060841;28;20221;-40
2024/02/04 10:30:59;;;;;;;14.18;3.08;;;9.90;99.90;;;;;;5060083;28;20225;-44
2024/02/04 10:33:25;;;;;;;17.83;3.55;;;9.90;99.90;;;;;;5059969;28;20263;-41
2024/02/04 10:35:51;;;;;;;17.77;2.88;;;9.90;99.90;;;;;;5060877;28;20199;-43
2024/02/04 10:38:16;;;;;;;18.85;3.42;;;9.90;99.90;;;;;;5075746;28;20295;-40
2024/02/04 10:40:44;;;;;;;12.55;2.70;;;10.00;99.90;;;;;;5060965;28;20273;-39
2024/02/04 10:43:11;;;;;;;11.00;2.35;;;10.10;99.90;;;;;;5059701;28;20222;-46
2024/02/04 10:45:39;;;;;;;14.95;2.40;;;10.10;99.90;;;;;;5060200;28;21030;-41
2024/02/04 10:48:06;;;;;;;12.02;2.35;;;10.20;99.90;;;;;;5060222;28;20255;-44
2024/02/04 10:50:35;;;;;;;11.80;2.17;;;10.20;99.90;;;;;;5062968;28;20205;-41
2024/02/04 10:53:07;;;;;;;10.48;2.05;;;10.20;99.90;;;;;;5063796;28;20225;-41
2024/02/04 10:55:40;;;;;;;9.98;2.40;;;10.30;99.90;;;;;;5063939;28;20614;-42
2024/02/04 10:58:07;;;;;;;11.57;3.20;;;10.30;99.90;;;;;;5064147;28;20268;-42
2024/02/04 11:00:34;;;;;;;13.18;2.47;;;10.30;99.90;;;;;;5063079;28;20210;-41
2024/02/04 11:03:02;;;;;;;11.20;2.33;;;10.30;99.90;;;;;;5063466;28;20190;-42
2024/02/04 11:05:29;;;;;;;10.38;2.10;;;10.30;99.90;;;;;;5061705;28;20187;-42
2024/02/04 11:07:57;;;;;;;11.35;2.13;;;10.30;99.90;;;;;;5057700;28;20195;-41
2024/02/04 11:10:24;;;;;;;15.60;2.63;;;10.30;99.90;;;;;;5061661;28;20195;-40
2024/02/04 11:12:51;;;;;;;13.80;3.08;;;10.30;99.90;;;;;;5063570;28;20294;-44
2024/02/04 11:15:20;;;;;;;14.93;2.58;;;10.30;99.90;;;;;;5063327;28;20317;-44
2024/02/04 11:18:10;;;;;;;14.93;2.47;;;10.30;99.90;;;;;;5062967;28;20686;-41
2024/02/04 11:21:04;;;;;;;12.27;2.67;;;10.30;99.90;;;;;;5062918;28;20663;-41
2024/02/04 11:23:43;;;;;;;10.93;2.20;;;10.40;99.90;;;;;;5063197;28;20194;-40
2024/02/04 11:26:10;;;;;;;11.02;2.30;;;10.40;99.90;;;;;;5062789;28;20271;-42
2024/02/04 11:28:37;;;;;;;16.75;2.88;;;10.40;99.90;;;;;;5063812;28;20210;-40
2024/02/04 11:31:03;;;;;;;10.00;2.28;;;10.40;99.90;;;;;;5061796;28;20182;-42
2024/02/04 11:33:29;;;;;;;9.10;2.20;;;10.50;99.90;;;;;;5062483;28;20244;-39
2024/02/04 11:36:04;;;;;;;10.55;2.08;;;10.50;99.90;;;;;;5063402;28;20272;-41
2024/02/04 11:38:35;;;;;;;14.20;2.30;;;10.40;99.90;;;;;;5062553;28;20210;-44
2024/02/04 11:41:03;;;;;;;10.55;2.70;;;10.40;99.90;;;;;;5077838;28;20219;-41
2024/02/04 11:43:32;;;;;;;19.05;2.42;;;10.40;99.90;;;;;;5060975;28;20739;-43
2024/02/04 11:45:59;;;;;;;11.68;2.90;;;10.40;99.90;;;;;;5062235;28;20178;-43
2024/02/04 11:48:36;;;;;;;13.32;2.17;;;10.50;99.90;;;;;;5060490;28;20299;-41
2024/02/04 11:51:04;;;;;;;14.25;2.45;;;10.50;99.90;;;;;;5062536;28;20186;-45
2024/02/04 11:53:32;;;;;;;11.93;2.10;;;10.50;99.90;;;;;;5062721;28;20186;-41
2024/02/04 11:56:00;;;;;;;14.73;2.70;;;10.60;99.90;;;;;;5062331;28;20618;-42
2024/02/04 11:58:29;;;;;;;12.85;2.20;;;10.50;99.90;;;;;;5062462;28;20214;-40
2024/02/04 12:00:57;;;;;;;5.28;1.85;;;10.60;99.90;;;;;;5061591;28;20191;-40
2024/02/04 12:03:31;;;;;;;12.48;2.42;;;10.60;99.90;;;;;;5060895;28;20515;-42
2024/02/04 12:05:58;;;;;;;13.68;2.50;;;10.60;99.90;;;;;;5062456;28;20282;-45
2024/02/04 12:08:24;;;;;;;18.77;2.60;;;10.60;99.90;;;;;;5061907;28;20686;-44
2024/02/04 12:10:51;;;;;;;10.25;2.55;;;10.70;99.90;;;;;;5061708;28;20194;-45
2024/02/04 12:13:21;;;;;;;14.55;2.70;;;10.70;99.90;;;;;;5061733;28;20182;-43
2024/02/04 12:15:48;;;;;;;13.48;2.78;;;10.70;99.90;;;;;;5062043;28;20268;-42
2024/02/04 12:18:16;;;;;;;11.00;2.30;;;10.80;99.90;;;;;;5062173;28;20206;-43
2024/02/04 12:20:41;;;;;;;11.43;2.50;;;10.80;99.90;;;;;;5061898;28;20696;-44
2024/02/04 12:23:08;;;;;;;10.75;2.40;;;10.80;99.90;;;;;;5062076;28;20227;-46
2024/02/04 12:25:34;;;;;;;13.00;2.92;;;10.80;99.90;;;;;;5077115;28;20183;-44
2024/02/04 12:28:02;;;;;;;10.68;2.22;;;10.80;99.90;;;;;;5060324;28;20209;-43
2024/02/04 12:30:29;;;;;;;13.80;2.67;;;10.90;99.90;;;;;;5061683;28;20198;-44
2024/02/04 12:32:57;;;;;;;12.00;2.78;;;10.90;99.90;;;;;;5061995;28;20561;-42
2024/02/04 12:35:23;;;;;;;13.85;1.92;;;10.90;99.90;;;;;;5060844;28;20191;-44
2024/02/04 12:37:52;;;;;;;11.57;2.10;;;10.90;99.90;;;;;;5060561;28;20275;-45
2024/02/04 12:40:25;;;;;;;11.93;2.28;;;10.90;99.90;;;;;;5061068;28;20318;-42
2024/02/04 12:43:01;;;;;;;13.25;2.10;;;10.90;99.90;;;;;;5060211;28;20191;-43